Time;durP1;ratioP1;P1;durP2;ratioP2;P2;SDS_P1;SDS_P2;PMS_P1;PMS_P2;Temp;Humidity;BMP_temperature;BMP_pressure;BME280_temperature;BME280_humidity;BME280_pressure;Samples;Min_cycle;Max_cycle;Signal;HPM_P1;HPM_P2
2023/12/13 00:01:47;;;;;;;53.92;24.05;;;;;;;-144.73;100.00;54740.22;4979785;28;20058;-73
2023/12/13 00:04:16;;;;;;;45.67;21.80;;;;;;;-144.73;100.00;54723.81;4973789;28;20035;-73
2023/12/13 00:06:41;;;;;;;50.35;23.75;;;;;;;-144.73;100.00;54736.13;4975401;28;20057;-73
2023/12/13 00:09:09;;;;;;;59.40;23.55;;;;;;;-144.73;100.00;54678.63;4972289;28;20030;-72
2023/12/13 00:11:35;;;;;;;55.95;24.55;;;;;;;-144.73;100.00;54732.00;4972342;28;20077;-72
2023/12/13 00:14:01;;;;;;;53.72;21.30;;;;;;;-144.73;100.00;54768.97;4974222;28;20150;-73
2023/12/13 00:16:26;;;;;;;60.15;25.23;;;;;;;-144.73;100.00;54719.69;4978172;28;20026;-73
2023/12/13 00:18:51;;;;;;;53.75;23.33;;;;;;;-144.73;100.00;54727.91;4980794;28;20034;-73
2023/12/13 00:21:17;;;;;;;51.20;22.42;;;;;;;-144.73;100.00;54688.91;4983199;28;20109;-72
2023/12/13 00:23:44;;;;;;;70.95;26.50;;;;;;;-144.73;100.00;54703.28;4973590;28;20031;-72
2023/12/13 00:26:16;;;;;;;56.53;24.38;;;;;;;-144.73;100.00;54725.84;4971013;28;20121;-72
2023/12/13 00:28:43;;;;;;;71.07;27.50;;;;;;;-144.73;100.00;54736.13;4978154;28;20453;-73
2023/12/13 00:31:10;;;;;;;79.75;27.17;;;;;;;-144.73;100.00;54682.75;4978366;28;20022;-75
2023/12/13 00:33:35;;;;;;;86.68;29.50;;;;;;;-144.73;100.00;54727.91;4980927;28;20027;-75
2023/12/13 00:36:00;;;;;;;75.57;29.77;;;;;;;-144.73;100.00;54707.38;4989300;28;20441;-76
2023/12/13 00:38:26;;;;;;;72.45;28.65;;;;;;;-144.73;100.00;54707.38;4987642;28;20030;-75
2023/12/13 00:40:52;;;;;;;74.63;27.88;;;;;;;-144.73;100.00;54746.38;4979951;28;20018;-76
2023/12/13 00:43:21;;;;;;;81.85;29.83;;;;;;;-144.73;100.00;54715.59;4976377;28;20030;-75
2023/12/13 00:45:50;;;;;;;61.85;25.95;;;;;;;-144.73;100.00;54748.44;4982717;28;20118;-77
2023/12/13 00:48:15;;;;;;;75.00;28.70;;;;;;;-144.73;100.00;54748.44;4969269;28;20488;-75
2023/12/13 00:50:41;;;;;;;60.17;24.60;;;;;;;-144.73;100.00;54740.22;4978297;28;20022;-75
2023/12/13 00:53:12;;;;;;;74.10;25.60;;;;;;;-144.73;100.00;54715.59;4989627;28;20027;-76
2023/12/13 00:55:40;;;;;;;64.65;26.33;;;;;;;-144.73;100.00;54701.22;4979740;28;20034;-76
2023/12/13 00:58:06;;;;;;;62.38;25.85;;;;;;;-144.73;100.00;54752.53;4972790;28;20047;-76
2023/12/13 01:00:33;;;;;;;61.92;25.08;;;;;;;-144.73;100.00;54719.69;4973113;28;20022;-76
2023/12/13 01:02:59;;;;;;;56.35;23.75;;;;;;;-144.73;100.00;54719.69;4979789;28;20158;-75
2023/12/13 01:05:24;;;;;;;62.38;25.60;;;;;;;-144.73;100.00;54719.69;4972994;28;20026;-77
2023/12/13 01:07:49;;;;;;;49.75;20.85;;;;;;;-144.73;100.00;54748.44;4986617;28;20049;-76
2023/12/13 01:10:15;;;;;;;65.93;22.48;;;;;;;-144.73;100.00;54723.81;4987580;28;20026;-76
2023/12/13 01:12:44;;;;;;;45.50;19.70;;;;;;;-144.73;100.00;54732.00;4974891;28;20039;-77
2023/12/13 01:15:15;;;;;;;51.80;22.58;;;;;;;-144.73;100.00;54752.53;4977353;28;20045;-77
2023/12/13 01:17:41;;;;;;;;;;;;;;;-144.73;100.00;54711.47;4979241;28;20074;-76
2023/12/13 01:20:10;;;;;;;51.22;19.35;;;;;;;-144.73;100.00;54695.06;4980934;28;19956;-77
2023/12/13 01:22:38;;;;;;;44.35;18.88;;;;;;;-144.73;100.00;54746.38;4975037;28;20047;-76
2023/12/13 01:25:04;;;;;;;41.88;17.77;;;;;;;-144.73;100.00;54711.47;4978921;28;20035;-75
2023/12/13 01:27:30;;;;;;;34.95;16.30;;;;;;;-144.73;100.00;54688.91;4977380;28;20074;-77
2023/12/13 01:29:55;;;;;;;40.20;17.55;;;;;;;-144.73;100.00;54695.06;4992797;28;20022;-77
2023/12/13 01:32:20;;;;;;;36.83;16.17;;;;;;;-144.73;100.00;54740.22;4975318;28;20035;-76
2023/12/13 01:34:46;;;;;;;34.63;16.38;;;;;;;-144.73;100.00;54715.59;4972865;28;20030;-75
2023/12/13 01:37:11;;;;;;;33.42;15.63;;;;;;;-144.73;100.00;54744.31;4974773;28;20049;-76
2023/12/13 01:39:37;;;;;;;41.38;16.30;;;;;;;-144.73;100.00;54719.69;4979425;28;20040;-77
2023/12/13 01:42:04;;;;;;;37.22;15.88;;;;;;;-144.73;100.00;54744.31;4980680;28;20104;-77
2023/12/13 01:44:29;;;;;;;41.97;16.55;;;;;;;-144.73;100.00;54744.31;4982437;28;20416;-76
2023/12/13 01:46:54;;;;;;;30.05;14.38;;;;;;;-144.73;100.00;54736.13;4978560;28;20043;-77
2023/12/13 01:49:25;;;;;;;34.60;15.38;;;;;;;-144.73;100.00;54742.28;4984028;28;20061;-77
2023/12/13 01:51:51;;;;;;;41.20;15.90;;;;;;;-144.73;100.00;54750.50;4971407;28;20072;-76
2023/12/13 01:54:18;;;;;;;33.63;14.73;;;;;;;-144.73;100.00;54723.81;4977721;28;20018;-77
2023/12/13 01:56:45;;;;;;;30.73;13.57;;;;;;;-144.73;100.00;54744.31;4977712;28;20030;-78
2023/12/13 01:59:12;;;;;;;31.00;14.57;;;;;;;-144.73;100.00;54752.53;4976943;28;20028;-77
2023/12/13 02:01:41;;;;;;;41.35;15.95;;;;;;;-144.73;100.00;54740.22;4975117;28;20027;-78
2023/12/13 02:04:06;;;;;;;35.90;14.95;;;;;;;-144.73;100.00;54756.66;4977374;28;20389;-77
2023/12/13 02:06:32;;;;;;;35.67;14.45;;;;;;;-144.73;100.00;54736.13;4977423;28;20030;-78
2023/12/13 02:08:57;;;;;;;30.70;13.93;;;;;;;-144.73;100.00;54756.66;4982437;28;20042;-78
2023/12/13 02:11:23;;;;;;;31.70;13.90;;;;;;;-144.73;100.00;54703.28;4988172;28;20054;-78
2023/12/13 02:13:48;;;;;;;33.63;12.90;;;;;;;-144.73;100.00;54715.59;4975463;28;20031;-77
2023/12/13 02:16:13;;;;;;;27.75;12.68;;;;;;;-144.73;100.00;54715.59;4981094;28;20018;-78
2023/12/13 02:18:39;;;;;;;30.85;13.48;;;;;;;-144.73;100.00;54715.59;4985365;28;20048;-79
2023/12/13 02:21:05;;;;;;;31.35;13.55;;;;;;;-144.73;100.00;54744.31;4986178;28;20029;-78
2023/12/13 02:23:31;;;;;;;29.35;12.07;;;;;;;-144.73;100.00;54727.91;4973715;28;20061;-77
2023/12/13 02:26:05;;;;;;;24.70;12.48;;;;;;;-144.73;100.00;54715.59;4973319;28;20043;-78
2023/12/13 02:28:31;;;;;;;29.95;12.25;;;;;;;-144.73;100.00;54721.75;4971425;28;20031;-78
2023/12/13 02:30:58;;;;;;;27.65;12.23;;;;;;;-144.73;100.00;54732.00;4974233;28;20078;-79
2023/12/13 02:33:29;;;;;;;31.52;13.40;;;;;;;-144.73;100.00;54740.22;4973535;28;20109;-79
2023/12/13 02:36:00;;;;;;;24.77;11.23;;;;;;;-144.73;100.00;54727.91;4980970;28;20112;-78
2023/12/13 02:38:26;;;;;;;22.52;11.02;;;;;;;-144.73;100.00;54736.13;4977590;28;20109;-77
2023/12/13 02:40:55;;;;;;;28.73;11.77;;;;;;;-144.73;100.00;54758.69;4978533;28;20038;-79
2023/12/13 02:43:20;;;;;;;21.98;11.20;;;;;;;-144.73;100.00;54711.47;4976598;28;20027;-78
2023/12/13 02:45:46;;;;;;;25.00;11.15;;;;;;;-144.73;100.00;54719.69;4973047;28;20034;-77
2023/12/13 02:48:11;;;;;;;23.65;11.70;;;;;;;-144.73;100.00;54748.44;4984591;28;20483;-78
2023/12/13 02:50:38;;;;;;;23.83;12.13;;;;;;;-144.73;100.00;54744.31;4984514;28;20034;-77
2023/12/13 02:53:05;;;;;;;25.27;12.10;;;;;;;-144.73;100.00;54723.81;4972635;28;20030;-78
2023/12/13 02:55:30;;;;;;;25.90;12.05;;;;;;;-144.73;100.00;54723.81;4985224;28;20022;-77
2023/12/13 02:57:56;;;;;;;27.48;11.93;;;;;;;-144.73;100.00;54752.53;4974174;28;20101;-77
2023/12/13 03:00:30;;;;;;;27.98;11.60;;;;;;;-144.73;100.00;54727.91;4976457;28;20019;-77
2023/12/13 03:02:56;;;;;;;27.25;12.27;;;;;;;-144.73;100.00;54760.75;4973132;28;20038;-77
2023/12/13 03:05:21;;;;;;;20.15;10.73;;;;;;;-144.73;100.00;54727.91;4991296;28;20033;-77
2023/12/13 03:07:47;;;;;;;24.27;11.75;;;;;;;-144.73;100.00;54773.06;4984525;28;20042;-78
2023/12/13 03:10:12;;;;;;;25.15;12.23;;;;;;;-144.73;100.00;54732.00;4991741;28;20026;-78
2023/12/13 03:12:39;;;;;;;23.30;11.77;;;;;;;-144.73;100.00;54727.91;4986044;28;20031;-78
2023/12/13 03:15:04;;;;;;;19.10;10.23;;;;;;;-144.73;100.00;54744.31;4991195;28;20027;-78
2023/12/13 03:17:30;;;;;;;19.35;11.05;;;;;;;-144.73;100.00;54719.69;4979689;28;20038;-78
2023/12/13 03:19:55;;;;;;;20.45;10.23;;;;;;;-144.73;100.00;54715.59;4986951;28;20065;-77
2023/12/13 03:22:20;;;;;;;23.90;12.10;;;;;;;-144.73;100.00;54715.59;4979851;28;20035;-77
2023/12/13 03:24:46;;;;;;;25.20;10.77;;;;;;;-144.73;100.00;54764.84;4981523;28;20191;-78
2023/12/13 03:27:11;;;;;;;22.90;11.63;;;;;;;-144.73;100.00;54719.69;4974688;28;20042;-78
2023/12/13 03:29:37;;;;;;;20.17;10.40;;;;;;;-144.73;100.00;54703.28;4987794;28;20076;-77
2023/12/13 03:32:03;;;;;;;22.83;11.88;;;;;;;-144.73;100.00;54736.13;4980746;28;20039;-77
2023/12/13 03:34:29;;;;;;;22.63;11.35;;;;;;;-144.73;100.00;54732.00;4985299;28;20035;-75
2023/12/13 03:36:54;;;;;;;26.52;12.27;;;;;;;-144.73;100.00;54719.69;4984566;28;20066;-75
2023/12/13 03:39:19;;;;;;;24.85;12.20;;;;;;;-144.73;100.00;54723.81;4987906;28;20018;-76
2023/12/13 03:41:45;;;;;;;23.42;10.90;;;;;;;-144.73;100.00;54732.00;4979949;28;20160;-76
2023/12/13 03:44:10;;;;;;;20.58;11.55;;;;;;;-144.73;100.00;54717.66;4978284;28;20030;-75
2023/12/13 03:46:36;;;;;;;23.05;11.65;;;;;;;-144.73;100.00;54703.28;4976061;28;20100;-75
2023/12/13 03:49:01;;;;;;;25.55;11.43;;;;;;;-144.73;100.00;54732.00;4987761;28;20113;-75
2023/12/13 03:51:26;;;;;;;26.92;11.27;;;;;;;-144.73;100.00;54715.59;4983760;28;20029;-76
2023/12/13 03:53:52;;;;;;;17.08;9.98;;;;;;;-144.73;100.00;54713.53;4983508;28;20117;-76
2023/12/13 03:56:17;;;;;;;25.17;12.80;;;;;;;-144.73;100.00;54760.75;4978400;28;20287;-76
2023/12/13 03:58:42;;;;;;;21.63;10.45;;;;;;;-144.73;100.00;54752.53;4975952;28;20127;-76
2023/12/13 04:01:08;;;;;;;21.90;11.05;;;;;;;-144.73;100.00;54736.13;4981371;28;20030;-76
2023/12/13 04:03:34;;;;;;;17.58;9.68;;;;;;;-144.73;100.00;54736.13;4974369;28;20031;-76
2023/12/13 04:06:00;;;;;;;18.02;9.90;;;;;;;-144.73;100.00;54732.00;4983406;28;20085;-77
2023/12/13 04:08:25;;;;;;;18.25;10.25;;;;;;;-144.73;100.00;54736.13;4989955;28;20035;-78
2023/12/13 04:10:50;;;;;;;23.40;11.20;;;;;;;-144.73;100.00;54727.91;4982606;28;20117;-77
2023/12/13 04:13:16;;;;;;;22.45;11.27;;;;;;;-144.73;100.00;54727.91;4983562;28;20042;-76
2023/12/13 04:15:42;;;;;;;17.20;9.73;;;;;;;-144.73;100.00;54703.28;4984340;28;20041;-77
2023/12/13 04:18:07;;;;;;;18.40;10.45;;;;;;;-144.73;100.00;54719.69;4976678;28;20557;-76
2023/12/13 04:20:33;;;;;;;22.90;12.15;;;;;;;-144.73;100.00;54756.66;4978953;28;20109;-76
2023/12/13 04:22:58;;;;;;;20.33;10.55;;;;;;;-144.73;100.00;54715.59;4981166;28;20066;-77
2023/12/13 04:25:23;;;;;;;20.90;10.38;;;;;;;-144.73;100.00;54719.69;4983136;28;20022;-76
2023/12/13 04:27:49;;;;;;;17.02;9.73;;;;;;;-144.73;100.00;54699.16;4979646;28;20112;-77
2023/12/13 04:30:14;;;;;;;17.02;9.80;;;;;;;-144.73;100.00;54740.22;4980577;28;20027;-76
2023/12/13 04:32:40;;;;;;;24.02;11.43;;;;;;;-144.73;100.00;54736.13;4976549;28;20038;-76
2023/12/13 04:35:08;;;;;;;22.42;12.27;;;;;;;-144.73;100.00;54682.75;4975843;28;20078;-77
2023/12/13 04:37:34;;;;;;;26.02;12.85;;;;;;;-144.73;100.00;54752.53;4982333;28;20042;-76
2023/12/13 04:40:00;;;;;;;23.38;11.98;;;;;;;-144.73;100.00;54723.81;4988024;28;20117;-76
2023/12/13 04:42:25;;;;;;;17.75;10.13;;;;;;;-144.73;100.00;54732.00;4980184;28;20080;-76
2023/12/13 04:44:51;;;;;;;22.50;12.25;;;;;;;-144.73;100.00;54715.59;4980287;28;20085;-76
2023/12/13 04:47:17;;;;;;;24.55;12.77;;;;;;;-144.73;100.00;54740.22;4984538;28;20034;-76
2023/12/13 04:49:43;;;;;;;19.45;11.73;;;;;;;-144.73;100.00;54740.22;4982359;28;20022;-78
2023/12/13 04:52:08;;;;;;;22.92;12.73;;;;;;;-144.73;100.00;54732.00;4976955;28;20039;-75
2023/12/13 04:54:35;;;;;;;22.05;12.00;;;;;;;-144.73;100.00;54715.59;4978675;28;20515;-75
2023/12/13 04:57:01;;;;;;;23.92;12.35;;;;;;;-144.73;100.00;54711.47;4981975;28;20117;-76
2023/12/13 04:59:27;;;;;;;24.10;12.40;;;;;;;-144.73;100.00;54732.00;4985755;28;20118;-75
2023/12/13 05:01:52;;;;;;;21.75;12.02;;;;;;;-144.73;100.00;54744.31;4979872;28;20041;-75
2023/12/13 05:04:17;;;;;;;27.67;12.43;;;;;;;-144.73;100.00;54715.59;4971074;28;20031;-75
2023/12/13 05:06:43;;;;;;;24.35;12.70;;;;;;;-144.73;100.00;54736.13;4975586;28;20050;-75
2023/12/13 05:09:08;;;;;;;26.35;14.20;;;;;;;-144.73;100.00;54703.28;4974347;28;20037;-76
2023/12/13 05:11:34;;;;;;;21.42;12.30;;;;;;;-144.73;100.00;54764.84;4979214;28;20030;-76
2023/12/13 05:13:59;;;;;;;23.38;12.70;;;;;;;-144.73;100.00;54764.84;4976243;28;20142;-76
2023/12/13 05:16:24;;;;;;;27.73;14.30;;;;;;;-144.73;100.00;54732.00;4981150;28;20070;-75
2023/12/13 05:18:53;;;;;;;26.15;13.00;;;;;;;-144.73;100.00;54719.69;4974108;28;20051;-76
2023/12/13 05:21:18;;;;;;;26.65;14.63;;;;;;;-144.73;100.00;54748.44;4979976;28;20038;-76
2023/12/13 05:23:43;;;;;;;29.98;13.68;;;;;;;-144.73;100.00;54744.31;4973709;28;20050;-76
2023/12/13 05:26:09;;;;;;;27.40;12.38;;;;;;;-144.73;100.00;54715.59;4980605;28;20057;-77
2023/12/13 05:28:34;;;;;;;19.50;10.98;;;;;;;-144.73;100.00;54709.44;4978490;28;20042;-76
2023/12/13 05:30:59;;;;;;;27.50;13.30;;;;;;;-144.73;100.00;54727.91;4977962;28;20038;-75
2023/12/13 05:33:26;;;;;;;27.85;12.95;;;;;;;-144.73;100.00;54715.59;4972908;28;20046;-76
2023/12/13 05:35:51;;;;;;;33.63;16.15;;;;;;;-144.73;100.00;54723.81;4979432;28;20044;-76
2023/12/13 05:38:16;;;;;;;27.48;14.13;;;;;;;-144.73;100.00;54727.91;4980402;28;20050;-77
2023/12/13 05:40:42;;;;;;;38.10;13.63;;;;;;;-144.73;100.00;54734.06;4984601;28;20042;-75
2023/12/13 05:43:07;;;;;;;26.73;13.63;;;;;;;-144.73;100.00;54715.59;4980128;28;20038;-76
2023/12/13 05:45:32;;;;;;;34.75;16.52;;;;;;;-144.73;100.00;54785.38;4985757;28;20113;-76
2023/12/13 05:47:58;;;;;;;31.60;17.08;;;;;;;-144.73;100.00;54715.59;4980619;28;20054;-77
2023/12/13 05:50:24;;;;;;;46.33;25.05;;;;;;;-144.73;100.00;54727.91;4978063;28;20026;-77
2023/12/13 05:52:49;;;;;;;30.48;16.13;;;;;;;-144.73;100.00;54727.91;4973720;28;20543;-77
2023/12/13 05:55:14;;;;;;;30.35;15.35;;;;;;;-144.73;100.00;54736.13;4971405;28;20094;-76
2023/12/13 05:57:40;;;;;;;39.10;21.58;;;;;;;-144.73;100.00;54760.75;4977166;28;20038;-76
2023/12/13 06:00:08;;;;;;;31.67;16.85;;;;;;;-144.73;100.00;54715.59;4980576;28;20034;-77
2023/12/13 06:02:37;;;;;;;28.25;15.57;;;;;;;-144.73;100.00;54719.69;4977279;28;20043;-76
2023/12/13 06:05:03;;;;;;;30.67;14.68;;;;;;;-144.73;100.00;54719.69;4979800;28;20038;-77
2023/12/13 06:07:29;;;;;;;28.33;15.10;;;;;;;-144.73;100.00;54719.69;4980312;28;20256;-76
2023/12/13 06:09:55;;;;;;;41.45;17.45;;;;;;;-144.73;100.00;54740.22;4974617;28;20046;-77
2023/12/13 06:12:20;;;;;;;36.05;15.95;;;;;;;-144.73;100.00;54740.22;4983201;28;20049;-76
2023/12/13 06:14:46;;;;;;;39.22;18.27;;;;;;;-144.73;100.00;54744.31;4978444;28;20069;-76
2023/12/13 06:17:11;;;;;;;31.60;16.80;;;;;;;-144.73;100.00;54752.53;4978958;28;20035;-76
2023/12/13 06:19:37;;;;;;;36.85;17.15;;;;;;;-144.73;100.00;54695.06;4980582;28;20033;-76
2023/12/13 06:22:02;;;;;;;38.30;18.15;;;;;;;-144.73;100.00;54703.28;4981581;28;20038;-76
2023/12/13 06:24:28;;;;;;;29.98;14.98;;;;;;;-144.73;100.00;54729.97;4979032;28;20031;-75
2023/12/13 06:26:53;;;;;;;31.45;15.02;;;;;;;-144.73;100.00;54752.53;4970188;28;20051;-76
2023/12/13 06:29:19;;;;;;;28.98;15.02;;;;;;;-144.73;100.00;54760.75;4977081;28;20109;-75
2023/12/13 06:31:44;;;;;;;40.28;21.75;;;;;;;-144.73;100.00;54775.13;4977937;28;20084;-76
2023/12/13 06:34:10;;;;;;;40.42;19.98;;;;;;;-144.73;100.00;54736.13;4982059;28;20053;-76
2023/12/13 06:36:36;;;;;;;43.05;20.08;;;;;;;-144.73;100.00;54740.22;4979971;28;20045;-76
2023/12/13 06:39:04;;;;;;;39.78;20.13;;;;;;;-144.73;100.00;54736.13;4979235;28;20505;-77
2023/12/13 06:41:30;;;;;;;46.00;19.95;;;;;;;-144.73;100.00;54738.16;4975815;28;20413;-75
2023/12/13 06:43:56;;;;;;;51.83;21.08;;;;;;;-144.73;100.00;54715.59;4979467;28;20035;-75
2023/12/13 06:46:25;;;;;;;35.55;16.15;;;;;;;-144.73;100.00;54719.69;4986661;28;20037;-76
2023/12/13 06:48:51;;;;;;;35.17;15.55;;;;;;;-144.73;100.00;54715.59;4976650;28;20046;-77
2023/12/13 06:51:17;;;;;;;36.78;17.95;;;;;;;-144.73;100.00;54703.28;4982189;28;20026;-75
2023/12/13 06:53:43;;;;;;;42.72;19.85;;;;;;;-144.73;100.00;54707.38;4976936;28;20037;-75
2023/12/13 06:56:08;;;;;;;45.47;18.73;;;;;;;-144.73;100.00;54715.59;4975854;28;20038;-75
2023/12/13 06:58:34;;;;;;;34.95;16.58;;;;;;;-144.73;100.00;54717.66;4984070;28;20042;-75
2023/12/13 07:01:01;;;;;;;40.42;18.70;;;;;;;-144.73;100.00;54713.53;4981507;28;20540;-75
2023/12/13 07:03:29;;;;;;;42.42;17.38;;;;;;;-144.73;100.00;54732.00;4976244;28;20073;-76
2023/12/13 07:05:54;;;;;;;44.15;19.42;;;;;;;-144.73;100.00;54721.75;4982292;28;20061;-76
2023/12/13 07:08:20;;;;;;;35.25;17.23;;;;;;;-144.73;100.00;54715.59;4986445;28;20043;-76
2023/12/13 07:10:45;;;;;;;38.13;16.55;;;;;;;-144.73;100.00;54723.81;4981378;28;20053;-74
2023/12/13 07:13:11;;;;;;;40.72;18.30;;;;;;;-144.73;100.00;54756.66;4975633;28;20434;-76
2023/12/13 07:15:37;;;;;;;37.22;17.27;;;;;;;-144.73;100.00;54736.13;4983017;28;20026;-75
2023/12/13 07:18:02;;;;;;;37.17;16.55;;;;;;;-144.73;100.00;54785.38;4980889;28;20046;-76
2023/12/13 07:20:30;;;;;;;41.08;18.67;;;;;;;-144.73;100.00;54738.16;4980854;28;20161;-76
2023/12/13 07:22:56;;;;;;;31.17;17.88;;;;;;;-144.73;100.00;54715.59;4981027;28;20126;-75
2023/12/13 07:25:21;;;;;;;52.67;20.65;;;;;;;-144.73;100.00;54715.59;4976976;28;20134;-77
2023/12/13 07:27:47;;;;;;;44.30;17.23;;;;;;;-144.73;100.00;54715.59;4977816;28;20038;-75
2023/12/13 07:30:12;;;;;;;49.53;22.13;;;;;;;-144.73;100.00;54744.31;4975134;28;20026;-76
2023/12/13 07:32:43;;;;;;;34.70;16.75;;;;;;;-144.73;100.00;54748.44;4978205;28;20130;-75
2023/12/13 07:35:10;;;;;;;39.95;17.27;;;;;;;-144.73;100.00;54775.13;5002941;28;20102;-75
2023/12/13 07:37:36;;;;;;;42.05;19.88;;;;;;;-144.73;100.00;54711.47;4979060;28;20023;-76
2023/12/13 07:40:06;;;;;;;45.65;20.45;;;;;;;-144.73;100.00;54746.38;4977738;28;20089;-76
2023/12/13 07:42:32;;;;;;;55.97;26.65;;;;;;;-144.73;100.00;54711.47;4975655;28;20062;-76
2023/12/13 07:44:58;;;;;;;41.13;19.70;;;;;;;-144.73;100.00;54699.16;4975771;28;20102;-77
2023/12/13 07:47:24;;;;;;;36.80;17.83;;;;;;;-144.73;100.00;54736.13;4983673;28;20038;-76
2023/12/13 07:49:49;;;;;;;37.67;18.42;;;;;;;-144.73;100.00;54736.13;4979659;28;20034;-77
2023/12/13 07:52:15;;;;;;;39.13;21.67;;;;;;;-144.73;100.00;54707.38;4987334;28;20129;-74
2023/12/13 07:54:42;;;;;;;41.88;21.52;;;;;;;-144.73;100.00;54719.69;4983422;28;20046;-76
2023/12/13 07:57:07;;;;;;;33.85;16.95;;;;;;;-144.73;100.00;54777.16;4980223;28;20035;-75
2023/12/13 07:59:33;;;;;;;29.88;16.17;;;;;;;-144.73;100.00;54736.13;4984301;28;20110;-75
2023/12/13 08:01:59;;;;;;;35.65;17.23;;;;;;;-144.73;100.00;54711.47;4975154;28;20046;-76
2023/12/13 08:04:24;;;;;;;45.40;17.52;;;;;;;-144.73;100.00;54781.28;4975394;28;20034;-74
2023/12/13 08:06:49;;;;;;;33.25;16.95;;;;;;;-144.73;100.00;54701.22;4980179;28;20027;-74
2023/12/13 08:09:18;;;;;;;35.72;18.42;;;;;;;-144.73;100.00;54771.00;4980200;28;20019;-75
2023/12/13 08:11:46;;;;;;;44.72;19.63;;;;;;;-144.73;100.00;54699.16;4981091;28;20042;-75
2023/12/13 08:14:13;;;;;;;29.38;15.15;;;;;;;-144.73;100.00;54719.69;4976289;28;20485;-74
2023/12/13 08:16:39;;;;;;;32.22;15.63;;;;;;;-144.73;100.00;54744.31;4979250;28;20026;-76
2023/12/13 08:19:04;;;;;;;35.97;17.80;;;;;;;-144.73;100.00;54719.69;4974120;28;20023;-75
2023/12/13 08:21:30;;;;;;;29.67;15.48;;;;;;;-144.73;100.00;54711.47;4987819;28;20060;-75
2023/12/13 08:23:55;;;;;;;30.48;14.02;;;;;;;-144.73;100.00;54744.31;4974847;28;20089;-75
2023/12/13 08:26:21;;;;;;;27.27;15.75;;;;;;;-144.73;100.00;54738.16;4976436;28;20092;-76
2023/12/13 08:28:46;;;;;;;25.90;14.50;;;;;;;-144.73;100.00;54752.53;4975834;28;20169;-76
2023/12/13 08:31:12;;;;;;;27.52;13.80;;;;;;;-144.73;100.00;54744.31;4977458;28;20465;-75
2023/12/13 08:33:41;;;;;;;27.48;15.50;;;;;;;-144.73;100.00;54703.28;4975281;28;20109;-74
2023/12/13 08:36:13;;;;;;;30.60;16.15;;;;;;;-144.73;100.00;54732.00;4982467;28;20018;-75
2023/12/13 08:38:40;;;;;;;30.30;15.60;;;;;;;-144.73;100.00;54719.69;4978950;28;20050;-75
2023/12/13 08:41:11;;;;;;;33.30;16.20;;;;;;;-144.73;100.00;54711.47;4974838;28;20034;-75
2023/12/13 08:43:38;;;;;;;29.73;15.93;;;;;;;-144.73;100.00;54754.59;4984888;28;20054;-75
2023/12/13 08:46:07;;;;;;;44.17;20.45;;;;;;;-144.73;100.00;54781.28;4978041;28;20061;-74
2023/12/13 08:48:33;;;;;;;39.78;18.40;;;;;;;-144.73;100.00;54725.84;4982075;28;20050;-73
2023/12/13 08:50:59;;;;;;;38.53;17.02;;;;;;;-144.73;100.00;54768.97;4981250;28;20096;-75
2023/12/13 08:53:24;;;;;;;30.23;15.35;;;;;;;-144.73;100.00;54744.31;4972286;28;20039;-74
2023/12/13 08:55:50;;;;;;;35.00;16.90;;;;;;;-144.73;100.00;54707.38;4982073;28;20054;-76
2023/12/13 08:58:16;;;;;;;35.92;16.42;;;;;;;-144.73;100.00;54744.31;4983357;28;20022;-75
2023/12/13 09:00:41;;;;;;;35.75;16.67;;;;;;;-144.73;100.00;54748.44;4981901;28;20033;-75
2023/12/13 09:03:08;;;;;;;27.85;14.68;;;;;;;-144.73;100.00;54711.47;4972101;28;20039;-76
2023/12/13 09:05:34;;;;;;;27.02;15.15;;;;;;;-144.73;100.00;54746.38;4975337;28;20054;-75
2023/12/13 09:07:59;;;;;;;27.92;13.32;;;;;;;-144.73;100.00;54719.69;4981081;28;20042;-74
2023/12/13 09:10:24;;;;;;;36.28;17.40;;;;;;;-144.73;100.00;54740.22;4978948;28;20038;-76
2023/12/13 09:12:50;;;;;;;30.90;15.73;;;;;;;-144.73;100.00;54719.69;4974998;28;20037;-74
2023/12/13 09:15:17;;;;;;;28.42;15.13;;;;;;;-144.73;100.00;54699.16;4977241;28;20022;-74
2023/12/13 09:17:47;;;;;;;42.30;18.05;;;;;;;-144.73;100.00;54744.31;4974461;28;20046;-75
2023/12/13 09:20:16;;;;;;;39.72;16.13;;;;;;;-144.73;100.00;54744.31;4975801;28;20062;-74
2023/12/13 09:22:42;;;;;;;39.22;18.25;;;;;;;-144.73;100.00;54744.31;4982937;28;20145;-74
2023/12/13 09:25:08;;;;;;;35.78;16.00;;;;;;;-144.73;100.00;54768.97;4986619;28;20036;-74
2023/12/13 09:27:35;;;;;;;36.25;16.63;;;;;;;-144.73;100.00;54744.31;4978725;28;20090;-74
2023/12/13 09:30:00;;;;;;;32.65;16.55;;;;;;;-144.73;100.00;54736.13;4976138;28;20037;-73
2023/12/13 09:32:26;;;;;;;29.13;14.88;;;;;;;-144.73;100.00;54740.22;4985749;28;20050;-74
2023/12/13 09:34:51;;;;;;;27.13;14.32;;;;;;;-144.73;100.00;54711.47;4973672;28;20030;-74
2023/12/13 09:37:16;;;;;;;35.85;17.67;;;;;;;-144.73;100.00;54736.13;4964957;28;20088;-74
2023/12/13 09:39:42;;;;;;;27.90;14.50;;;;;;;-144.73;100.00;54752.53;4977222;28;20106;-74
2023/12/13 09:42:07;;;;;;;38.53;19.42;;;;;;;-144.73;100.00;54711.47;4973318;28;20054;-73
2023/12/13 09:44:38;;;;;;;39.53;16.83;;;;;;;-144.73;100.00;54760.75;4986023;28;20021;-74
2023/12/13 09:47:05;;;;;;;29.75;12.05;;;;;;;-144.73;100.00;54715.59;4979044;28;20073;-74
2023/12/13 09:49:34;;;;;;;35.67;15.85;;;;;;;-144.73;100.00;54727.91;4983555;28;20022;-74
2023/12/13 09:52:03;;;;;;;31.77;14.65;;;;;;;-144.73;100.00;54715.59;4969938;28;20046;-73
2023/12/13 09:54:30;;;;;;;34.90;15.88;;;;;;;-144.73;100.00;54764.84;4965578;28;20030;-73
2023/12/13 09:56:56;;;;;;;32.95;16.02;;;;;;;-144.73;100.00;54748.44;4980700;28;20088;-74
2023/12/13 09:59:21;;;;;;;35.15;16.70;;;;;;;-144.73;100.00;54715.59;4981162;28;20030;-74
2023/12/13 10:01:47;;;;;;;36.72;16.10;;;;;;;-144.73;100.00;54744.31;4974983;28;20427;-74
2023/12/13 10:04:14;;;;;;;33.05;15.27;;;;;;;-144.73;100.00;54695.06;4977948;28;20029;-72
2023/12/13 10:06:40;;;;;;;37.30;16.98;;;;;;;-144.73;100.00;54764.84;4985077;28;20025;-72
2023/12/13 10:09:07;;;;;;;24.42;13.27;;;;;;;-144.73;100.00;54713.53;4974107;28;20027;-72
2023/12/13 10:11:33;;;;;;;26.10;12.93;;;;;;;-144.73;100.00;54773.06;4973534;28;20030;-71
2023/12/13 10:13:58;;;;;;;22.42;11.90;;;;;;;-144.73;100.00;54760.75;4975467;28;20062;-70
2023/12/13 10:16:26;;;;;;;23.02;11.90;;;;;;;-144.73;100.00;54736.13;4974524;28;20100;-70
2023/12/13 10:18:52;;;;;;;25.95;12.23;;;;;;;-144.73;100.00;54736.13;4975455;28;20043;-70
2023/12/13 10:21:17;;;;;;;24.88;10.75;;;;;;;-144.73;100.00;54719.69;4968855;28;20041;-69
2023/12/13 10:23:43;;;;;;;26.52;12.25;;;;;;;-144.73;100.00;54723.81;4972363;28;20042;-69
2023/12/13 10:26:10;;;;;;;20.02;11.43;;;;;;;-144.73;100.00;54699.16;4976973;28;20026;-69
2023/12/13 10:28:36;;;;;;;25.25;11.82;;;;;;;-144.73;100.00;54736.13;4974779;28;20085;-69
2023/12/13 10:31:02;;;;;;;20.23;10.13;;;;;;;-144.73;100.00;54703.28;4977079;28;20031;-69
2023/12/13 10:33:27;;;;;;;26.35;11.43;;;;;;;-144.73;100.00;54752.53;4973704;28;20057;-69
2023/12/13 10:35:54;;;;;;;19.25;10.52;;;;;;;-144.73;100.00;54736.13;4974104;28;20069;-69
2023/12/13 10:38:23;;;;;;;17.13;9.43;;;;;;;-144.73;100.00;54756.66;4980050;28;20038;-69
2023/12/13 10:40:49;;;;;;;27.95;13.90;;;;;;;-144.73;100.00;54707.38;4980502;28;20397;-70
2023/12/13 10:43:15;;;;;;;19.95;10.70;;;;;;;-144.73;100.00;54736.13;4976705;28;20034;-69
2023/12/13 10:45:45;;;;;;;22.52;11.75;;;;;;;-144.73;100.00;54750.50;4972474;28;20142;-69
2023/12/13 10:48:13;;;;;;;20.58;10.35;;;;;;;-144.73;100.00;54752.53;4965459;28;20109;-69
2023/12/13 10:50:39;;;;;;;22.00;10.48;;;;;;;-144.73;100.00;54729.97;4974137;28;20023;-69